Time;durP1;ratioP1;P1;durP2;ratioP2;P2;SDS_P1;SDS_P2;PMS_P1;PMS_P2;Temp;Humidity;BMP_temperature;BMP_pressure;BME280_temperature;BME280_humidity;BME280_pressure;Samples;Min_cycle;Max_cycle;Signal;HPM_P1;HPM_P2
2022/07/14 00:02:05;;;;;;;3.85;1.15;;;;;;;19.11;88.07;99013.25;4972686;28;20038;-58
2022/07/14 00:04:30;;;;;;;2.33;0.95;;;;;;;19.02;89.59;99015.59;4971353;28;20360;-57
2022/07/14 00:06:56;;;;;;;2.83;1.13;;;;;;;18.91;88.81;99002.81;4963074;28;20019;-58
2022/07/14 00:09:21;;;;;;;4.32;1.15;;;;;;;18.82;87.74;99001.59;4967784;28;20030;-58
2022/07/14 00:11:47;;;;;;;5.20;1.30;;;;;;;18.72;86.79;98999.50;4969748;28;20125;-58
2022/07/14 00:14:12;;;;;;;3.85;1.40;;;;;;;18.64;86.93;99002.66;4971576;28;20391;-58
2022/07/14 00:16:38;;;;;;;3.78;1.60;;;;;;;18.55;86.91;98996.78;4968724;28;20509;-58
2022/07/14 00:19:03;;;;;;;3.03;1.83;;;;;;;18.57;88.14;99002.00;4960382;28;20482;-58
2022/07/14 00:21:29;;;;;;;2.63;1.30;;;;;;;18.57;87.51;99000.09;4969762;28;20127;-58
2022/07/14 00:23:54;;;;;;;2.55;1.20;;;;;;;18.57;88.39;99000.09;4961727;28;20051;-58
2022/07/14 00:26:19;;;;;;;3.17;1.20;;;;;;;18.49;87.29;98984.06;4957375;28;20126;-58
2022/07/14 00:28:45;;;;;;;1.95;0.98;;;;;;;18.46;87.01;98976.38;4959363;28;20055;-58
2022/07/14 00:31:11;;;;;;;4.18;1.02;;;;;;;18.39;86.43;98990.25;4976767;28;20030;-58
2022/07/14 00:33:38;;;;;;;3.22;1.08;;;;;;;18.43;90.88;98989.75;4968950;28;20285;-58
2022/07/14 00:36:04;;;;;;;2.50;1.00;;;;;;;18.29;92.95;98981.03;4968369;28;20455;-58
2022/07/14 00:38:30;;;;;;;1.38;1.02;;;;;;;18.14;96.41;98993.38;4970933;28;20026;-58
2022/07/14 00:40:55;;;;;;;4.22;1.35;;;;;;;17.91;100.00;98988.06;4961279;28;20037;-58
2022/07/14 00:43:21;;;;;;;1.90;1.05;;;;;;;17.71;100.00;98978.38;4963956;28;20065;-58
2022/07/14 00:45:47;;;;;;;2.60;1.20;;;;;;;17.60;100.00;98979.25;4964049;28;20063;-58
2022/07/14 00:48:12;;;;;;;3.45;1.20;;;;;;;17.56;100.00;98974.53;4985263;28;20027;-58
2022/07/14 00:50:41;;;;;;;2.25;0.90;;;;;;;17.60;100.00;98976.50;4968385;28;20042;-58
2022/07/14 00:53:08;;;;;;;3.58;1.05;;;;;;;17.60;100.00;98976.50;4963667;28;20427;-58
2022/07/14 00:55:34;;;;;;;6.80;1.35;;;;;;;17.59;100.00;98966.66;4964876;28;20454;-58
2022/07/14 00:57:59;;;;;;;1.42;1.08;;;;;;;17.46;100.00;98970.50;4971034;28;20031;-58
2022/07/14 01:00:25;;;;;;;4.90;1.23;;;;;;;17.39;100.00;98980.75;4969424;28;20097;-58
2022/07/14 01:02:50;;;;;;;2.35;1.30;;;;;;;17.37;100.00;98966.50;4967071;28;20037;-58
2022/07/14 01:05:17;;;;;;;3.95;1.38;;;;;;;17.45;100.00;98982.53;4972303;28;20433;-58
2022/07/14 01:07:43;;;;;;;3.35;1.25;;;;;;;17.44;100.00;98977.28;4960525;28;20102;-58
2022/07/14 01:10:09;;;;;;;2.15;1.20;;;;;;;17.38;100.00;98976.38;4969068;28;20188;-58
2022/07/14 01:12:35;;;;;;;2.85;1.17;;;;;;;17.30;100.00;98976.75;4966101;28;20030;-58
2022/07/14 01:15:01;;;;;;;3.58;1.20;;;;;;;17.18;100.00;98987.72;4965929;28;20030;-58
2022/07/14 01:17:27;;;;;;;4.07;1.60;;;;;;;17.03;100.00;98981.97;4967552;28;20031;-58
2022/07/14 01:19:53;;;;;;;2.75;1.23;;;;;;;16.97;100.00;98980.16;4963045;28;20083;-58
2022/07/14 01:22:18;;;;;;;4.55;1.30;;;;;;;16.92;100.00;98977.31;4960305;28;20057;-58
2022/07/14 01:24:44;;;;;;;1.52;1.05;;;;;;;16.94;100.00;98967.81;4966416;28;20475;-58
2022/07/14 01:27:11;;;;;;;5.03;1.13;;;;;;;16.86;100.00;98976.38;4967369;28;20438;-58
2022/07/14 01:29:36;;;;;;;2.75;1.30;;;;;;;16.78;100.00;98974.03;4970366;28;20058;-58
2022/07/14 01:32:02;;;;;;;2.83;1.30;;;;;;;16.68;100.00;98969.13;4966701;28;20057;-58
2022/07/14 01:34:27;;;;;;;1.80;1.00;;;;;;;16.70;100.00;98977.91;4984376;28;20033;-58
2022/07/14 01:36:53;;;;;;;3.30;1.38;;;;;;;16.69;100.00;98976.25;4966382;28;20030;-58
2022/07/14 01:39:19;;;;;;;1.80;1.08;;;;;;;16.80;100.00;98969.97;4968000;28;20038;-59
2022/07/14 01:41:45;;;;;;;4.78;1.40;;;;;;;16.75;100.00;98972.56;4960127;28;20029;-58
2022/07/14 01:44:11;;;;;;;3.78;1.33;;;;;;;16.67;100.00;98962.00;4961126;28;20038;-58
2022/07/14 01:46:37;;;;;;;3.03;1.38;;;;;;;16.56;100.00;98971.06;4968843;28;20509;-58
2022/07/14 01:49:03;;;;;;;4.05;1.20;;;;;;;16.42;100.00;98971.25;4966446;28;20106;-59
2022/07/14 01:51:29;;;;;;;1.83;1.20;;;;;;;16.23;100.00;98972.44;4961017;28;20031;-58
2022/07/14 01:53:54;;;;;;;6.90;1.60;;;;;;;16.27;100.00;98975.53;4961180;28;20027;-58
2022/07/14 01:56:20;;;;;;;3.33;1.42;;;;;;;16.16;100.00;98969.81;4963122;28;20026;-59
2022/07/14 01:58:45;;;;;;;5.70;1.35;;;;;;;16.10;100.00;98961.75;4963313;28;20114;-59
2022/07/14 02:03:57;;;;;;;2.28;1.23;;;;;;;16.06;100.00;98969.59;4964287;28;20422;-59
2022/07/14 02:06:22;;;;;;;3.53;1.70;;;;;;;16.06;100.00;98963.28;4970137;28;20041;-59
2022/07/14 02:08:47;;;;;;;8.10;1.33;;;;;;;16.11;100.00;98957.94;4966464;28;20450;-58
2022/07/14 02:13:57;;;;;;;4.70;1.60;;;;;;;16.01;100.00;98953.09;4963276;28;20030;-59
2022/07/14 02:16:23;;;;;;;2.85;1.20;;;;;;;15.97;100.00;98957.34;4970327;28;20031;-58
2022/07/14 02:18:49;;;;;;;2.20;1.48;;;;;;;15.98;100.00;98959.84;4962697;28;20553;-59
2022/07/14 02:21:14;;;;;;;3.78;1.50;;;;;;;16.02;100.00;98953.91;4964685;28;20074;-59
2022/07/14 02:23:39;;;;;;;3.15;1.60;;;;;;;15.95;100.00;98957.56;4970386;28;20466;-59
2022/07/14 02:26:15;;;;;;;3.90;1.42;;;;;;;15.86;100.00;98955.44;4966556;28;20034;-59
2022/07/14 02:28:41;;;;;;;2.30;1.38;;;;;;;15.77;100.00;98952.19;4967090;28;20505;-59
2022/07/14 02:31:10;;;;;;;6.10;1.40;;;;;;;15.60;100.00;98957.47;4962790;28;20034;-59
2022/07/14 02:33:37;;;;;;;1.85;1.25;;;;;;;15.47;100.00;98953.03;4967794;28;20030;-59
2022/07/14 02:36:03;;;;;;;1.73;1.27;;;;;;;15.51;100.00;98962.41;4959213;28;20085;-59
2022/07/14 02:38:29;;;;;;;3.50;1.50;;;;;;;15.55;100.00;98955.41;4961753;28;20059;-59
2022/07/14 02:40:54;;;;;;;3.47;1.30;;;;;;;15.46;100.00;98962.28;4964905;28;20115;-59
2022/07/14 02:43:21;;;;;;;4.35;1.58;;;;;;;15.49;100.00;98963.72;4959544;28;20038;-59
2022/07/14 02:45:46;;;;;;;3.72;1.30;;;;;;;15.41;100.00;98959.41;4960159;28;20026;-59
2022/07/14 02:48:12;;;;;;;3.58;1.58;;;;;;;15.38;100.00;98959.03;4962442;28;22190;-59
2022/07/14 02:50:37;;;;;;;3.55;1.40;;;;;;;15.57;100.00;98953.31;4963819;28;20057;-59
2022/07/14 02:53:03;;;;;;;2.10;1.38;;;;;;;15.41;100.00;98953.13;4971656;28;20029;-59
2022/07/14 02:55:29;;;;;;;1.85;1.42;;;;;;;15.47;100.00;98955.75;4965410;28;20068;-59
2022/07/14 02:57:55;;;;;;;6.10;1.30;;;;;;;15.54;100.00;98944.75;4964118;28;20050;-59
2022/07/14 03:00:20;;;;;;;5.15;1.20;;;;;;;15.61;100.00;98950.09;4971685;23;20039;-69
2022/07/14 03:02:45;;;;;;;2.67;1.52;;;;;;;15.53;100.00;98954.00;4985356;28;20034;-69
2022/07/14 03:05:11;;;;;;;5.28;1.27;;;;;;;15.25;100.00;98939.06;4987278;28;20027;-69
2022/07/14 03:07:36;;;;;;;2.08;1.27;;;;;;;15.26;100.00;98950.81;4981665;28;20046;-69
2022/07/14 03:10:02;;;;;;;5.40;1.50;;;;;;;15.23;100.00;98946.66;4984950;28;20103;-69
2022/07/14 03:12:27;;;;;;;1.95;1.55;;;;;;;15.10;100.00;98936.75;4986529;28;20052;-69
2022/07/14 03:14:52;;;;;;;2.88;1.80;;;;;;;15.05;100.00;98931.16;4993605;28;20423;-69
2022/07/14 03:17:18;;;;;;;2.40;1.75;;;;;;;15.03;100.00;98927.81;4989796;28;20038;-69
2022/07/14 03:19:43;;;;;;;6.32;1.42;;;;;;;15.10;100.00;98958.53;4989903;28;20038;-69
2022/07/14 03:22:09;;;;;;;4.80;1.50;;;;;;;15.16;100.00;98948.63;4982123;28;20038;-69
2022/07/14 03:24:34;;;;;;;3.00;1.63;;;;;;;15.05;100.00;98939.31;4980613;28;20062;-69
2022/07/14 03:27:00;;;;;;;3.10;1.52;;;;;;;15.04;100.00;98943.13;4981387;28;20384;-69
2022/07/14 03:29:26;;;;;;;2.70;1.50;;;;;;;14.87;100.00;98933.91;4981980;28;20030;-69
2022/07/14 03:31:52;;;;;;;2.53;1.45;;;;;;;14.90;100.00;98941.59;4982319;28;20031;-69
2022/07/14 03:34:18;;;;;;;2.78;1.67;;;;;;;14.89;100.00;98935.34;4990628;28;20034;-69
2022/07/14 03:36:43;;;;;;;2.13;1.58;;;;;;;14.85;100.00;98933.28;4990812;28;20030;-69
2022/07/14 03:39:08;;;;;;;2.72;1.52;;;;;;;14.84;100.00;98937.91;4977201;28;20038;-69
2022/07/14 03:41:33;;;;;;;2.70;1.52;;;;;;;14.87;100.00;98925.72;4991137;28;20022;-69
2022/07/14 03:43:59;;;;;;;5.43;1.63;;;;;;;14.82;100.00;98947.38;4988093;28;20515;-69
2022/07/14 03:46:24;;;;;;;1.48;1.30;;;;;;;14.78;100.00;98921.66;4989029;28;20030;-69
2022/07/14 03:48:49;;;;;;;7.20;1.50;;;;;;;14.85;100.00;98933.28;4980274;28;20038;-69
2022/07/14 03:51:14;;;;;;;4.72;1.40;;;;;;;14.87;100.00;98937.44;4983169;28;20022;-69
2022/07/14 03:53:40;;;;;;;1.67;1.25;;;;;;;14.87;100.00;98952.97;4986673;28;20022;-69
2022/07/14 03:56:05;;;;;;;2.70;1.50;;;;;;;14.90;100.00;98952.50;4982706;28;20037;-69
2022/07/14 03:58:30;;;;;;;3.65;1.60;;;;;;;14.96;100.00;98957.06;4987053;28;20030;-69
2022/07/14 04:00:56;;;;;;;2.47;1.52;;;;;;;14.97;100.00;98950.53;4985151;28;20030;-69
2022/07/14 04:03:21;;;;;;;5.28;1.38;;;;;;;15.12;100.00;98969.22;4990221;28;20066;-69
2022/07/14 04:05:46;;;;;;;3.10;1.45;;;;;;;15.21;100.00;98962.38;4984822;28;20050;-69
2022/07/14 04:08:12;;;;;;;4.15;1.52;;;;;;;15.31;100.00;98964.56;4984179;28;20038;-69
2022/07/14 04:10:38;;;;;;;2.20;1.52;;;;;;;15.38;100.00;98978.97;4988189;28;20084;-69
2022/07/14 04:13:04;;;;;;;2.17;1.38;;;;;;;15.43;100.00;98973.66;4983982;28;20033;-69
2022/07/14 04:15:30;;;;;;;3.35;1.63;;;;;;;15.55;100.00;98960.88;4983575;28;20030;-69
2022/07/14 04:17:56;;;;;;;5.40;1.45;;;;;;;15.57;100.00;98963.38;4983907;28;20488;-69
2022/07/14 04:20:21;;;;;;;5.57;1.35;;;;;;;15.52;100.00;98953.16;4985331;28;20066;-69
2022/07/14 04:22:48;;;;;;;2.78;1.55;;;;;;;15.73;100.00;98960.00;4987107;28;20046;-69
2022/07/14 04:25:13;;;;;;;4.07;1.90;;;;;;;15.76;100.00;98967.72;4980190;28;20630;-69
2022/07/14 04:27:39;;;;;;;1.80;1.30;;;;;;;15.65;100.00;98948.59;4989839;28;20029;-69
2022/07/14 04:30:05;;;;;;;4.60;1.63;;;;;;;15.76;100.00;98961.44;4982043;28;20049;-69
2022/07/14 04:32:31;;;;;;;3.20;1.40;;;;;;;15.77;100.00;98954.91;4989149;28;20093;-69
2022/07/14 04:34:56;;;;;;;2.88;1.50;;;;;;;15.92;100.00;98968.94;4985780;28;20492;-70
2022/07/14 04:37:22;;;;;;;2.28;1.40;;;;;;;16.05;100.00;98964.34;4982406;28;20110;-71
2022/07/14 04:39:47;;;;;;;3.00;1.50;;;;;;;16.09;100.00;98971.84;4984050;28;20052;-70
2022/07/14 04:42:12;;;;;;;1.73;1.40;;;;;;;15.99;100.00;98942.41;4992084;28;20045;-69
2022/07/14 04:44:38;;;;;;;3.08;1.80;;;;;;;16.06;100.00;98946.91;4982111;28;20398;-69
2022/07/14 04:47:03;;;;;;;4.20;2.10;;;;;;;16.34;100.00;98968.06;4989470;28;20018;-71
2022/07/14 04:52:12;;;;;;;2.80;1.55;;;;;;;16.68;100.00;98960.09;4992275;28;20045;-68
2022/07/14 04:54:37;;;;;;;4.10;1.60;;;;;;;16.67;100.00;98967.47;4982726;28;20034;-67
2022/07/14 04:57:04;;;;;;;3.47;1.65;;;;;;;16.79;100.00;98970.22;4986242;28;20076;-68
2022/07/14 04:59:30;;;;;;;5.78;2.30;;;;;;;16.92;100.00;98966.38;4982252;28;20031;-67
2022/07/14 05:01:56;;;;;;;5.18;2.05;;;;;;;16.98;100.00;98963.53;4990167;28;20101;-69
2022/07/14 05:04:22;;;;;;;5.20;1.73;;;;;;;17.07;100.00;98961.25;4984364;28;20034;-69
2022/07/14 05:06:49;;;;;;;6.00;1.95;;;;;;;17.36;100.00;98966.75;4979911;28;20026;-68
2022/07/14 05:09:17;;;;;;;3.95;1.90;;;;;;;17.48;99.01;98959.34;4974600;28;20042;-71
2022/07/14 05:11:42;;;;;;;7.28;1.90;;;;;;;17.73;98.17;98969.91;4979674;28;20117;-70
2022/07/14 05:14:08;;;;;;;11.20;2.10;;;;;;;17.74;97.48;98972.41;4983898;28;20168;-69
2022/07/14 05:16:33;;;;;;;5.45;1.83;;;;;;;17.81;94.69;98971.44;4976057;28;20805;-65
2022/07/14 05:18:59;;;;;;;4.65;1.90;;;;;;;17.90;94.49;98969.97;4980103;28;20072;-68
2022/07/14 05:21:24;;;;;;;5.63;1.73;;;;;;;17.80;96.13;98940.50;4978247;28;20033;-70
2022/07/14 05:23:50;;;;;;;2.58;1.60;;;;;;;18.13;94.76;98961.63;4983602;28;20099;-70
2022/07/14 05:26:15;;;;;;;2.30;1.70;;;;;;;18.31;93.84;98948.72;4982930;28;20029;-70
2022/07/14 05:28:41;;;;;;;4.18;1.85;;;;;;;18.44;91.33;98964.00;4981559;28;20113;-67
2022/07/14 05:31:06;;;;;;;3.45;1.63;;;;;;;18.62;86.97;98963.72;4983519;28;20035;-68
2022/07/14 05:33:32;;;;;;;2.40;1.50;;;;;;;18.80;85.08;98954.41;4980154;28;20851;-70
2022/07/14 05:35:58;;;;;;;7.80;1.98;;;;;;;18.75;84.50;98954.34;4986284;28;20392;-68
2022/07/14 05:38:23;;;;;;;5.10;2.10;;;;;;;18.87;83.15;98951.50;4985729;28;20058;-67
2022/07/14 05:40:49;;;;;;;2.60;2.03;;;;;;;19.13;82.28;98950.75;4985254;28;20022;-67
2022/07/14 05:43:14;;;;;;;4.95;1.58;;;;;;;19.44;77.00;98940.94;4986560;28;20034;-67
2022/07/14 05:45:40;;;;;;;4.47;1.50;;;;;;;19.64;73.67;98943.06;4984893;28;20041;-67
2022/07/14 05:48:05;;;;;;;4.70;1.40;;;;;;;19.63;73.56;98924.94;4979619;28;20030;-67
2022/07/14 05:50:31;;;;;;;2.55;1.55;;;;;;;20.05;72.62;98940.72;4985205;28;20041;-68
2022/07/14 05:52:56;;;;;;;2.38;1.52;;;;;;;20.33;71.20;98944.22;4986576;28;20030;-68
2022/07/14 05:55:22;;;;;;;5.30;1.70;;;;;;;20.47;71.26;98931.69;4981231;28;20049;-68
2022/07/14 05:57:48;;;;;;;6.15;1.45;;;;;;;20.69;70.44;98934.31;4981835;28;20026;-68
2022/07/14 06:00:15;;;;;;;1.42;1.20;;;;;;;20.97;68.30;98929.53;4981001;28;20113;-68
2022/07/14 06:02:43;;;;;;;5.80;1.55;;;;;;;21.36;67.63;98931.88;4984784;28;20038;-68
2022/07/14 06:05:10;;;;;;;4.90;1.40;;;;;;;21.71;67.38;98933.91;4983386;28;20030;-68
2022/07/14 06:07:36;;;;;;;2.90;1.33;;;;;;;21.99;65.29;98932.56;4981841;28;20031;-67
2022/07/14 06:10:01;;;;;;;5.30;1.50;;;;;;;22.32;63.99;98927.59;4986989;28;20193;-67
2022/07/14 06:12:27;;;;;;;4.43;1.33;;;;;;;22.45;63.85;98935.31;4990314;28;20116;-67
2022/07/14 06:14:52;;;;;;;4.13;1.40;;;;;;;22.51;63.01;98931.44;4978486;28;20030;-67
2022/07/14 06:17:18;;;;;;;4.30;1.25;;;;;;;22.77;63.67;98923.13;4979006;28;20030;-67
2022/07/14 06:19:43;;;;;;;4.00;1.25;;;;;;;22.95;62.87;98929.94;4983061;28;20496;-67
2022/07/14 06:22:08;;;;;;;4.10;1.40;;;;;;;22.92;60.62;98925.81;4981155;28;20032;-67
2022/07/14 06:24:37;;;;;;;2.72;1.33;;;;;;;23.06;60.64;98919.72;4982112;28;20408;-67
2022/07/14 06:27:02;;;;;;;6.88;1.38;;;;;;;22.97;60.82;98925.81;4984049;28;20026;-67
2022/07/14 06:29:27;;;;;;;2.47;1.35;;;;;;;22.90;62.30;98922.53;4984210;28;20400;-67
2022/07/14 06:31:55;;;;;;;3.00;1.23;;;;;;;23.36;59.79;98922.31;4980879;28;20030;-67
2022/07/14 06:34:22;;;;;;;6.00;1.33;;;;;;;23.73;59.58;98918.25;4983094;28;20040;-67
2022/07/14 06:36:47;;;;;;;7.68;1.30;;;;;;;23.82;57.99;98908.25;4985209;28;20019;-67
2022/07/14 06:39:13;;;;;;;4.22;1.20;;;;;;;24.24;58.68;98915.09;4985568;28;20041;-67
2022/07/14 06:41:39;;;;;;;3.65;1.27;;;;;;;24.23;56.32;98919.00;4992997;28;20109;-67
2022/07/14 06:44:04;;;;;;;3.58;1.08;;;;;;;24.70;55.33;98909.13;4988617;28;21361;-67
2022/07/14 06:46:32;;;;;;;2.83;0.98;;;;;;;25.21;53.18;98910.47;4986008;28;20033;-67
2022/07/14 06:48:57;;;;;;;3.92;1.30;;;;;;;25.95;51.07;98902.47;4978323;28;20022;-67
2022/07/14 06:51:23;;;;;;;11.02;1.50;;;;;;;26.35;50.28;98894.56;4987550;28;20033;-67
2022/07/14 06:53:49;;;;;;;3.53;1.33;;;;;;;26.41;48.93;98868.41;4985454;28;20053;-73
2022/07/14 06:56:14;;;;;;;7.15;1.52;;;;;;;26.92;48.67;98904.66;4993262;28;20081;-73
2022/07/14 06:58:40;;;;;;;2.80;1.10;;;;;;;27.39;46.63;98897.81;4987483;28;20571;-71
2022/07/14 07:01:05;;;;;;;8.55;1.88;;;;;;;28.41;44.20;98881.44;4982107;28;20030;-75
2022/07/14 07:03:30;;;;;;;6.03;1.10;;;;;;;28.98;42.80;98885.47;4977837;28;20030;-75
2022/07/14 07:08:40;;;;;;;12.30;1.27;;;;;;;27.36;44.45;98881.78;4985699;28;20232;-73
2022/07/14 07:11:05;;;;;;;13.07;1.25;;;;;;;27.50;44.89;98876.19;4986769;28;20037;-73
2022/07/14 07:13:30;;;;;;;6.15;1.05;;;;;;;27.74;44.37;98873.91;4994846;28;20108;-72
2022/07/14 07:15:56;;;;;;;8.65;1.27;;;;;;;29.90;40.12;98851.97;4988757;28;20542;-74
2022/07/14 07:18:21;;;;;;;10.23;1.17;;;;;;;32.01;36.05;98896.16;4985242;28;20042;-68
2022/07/14 07:20:47;;;;;;;16.98;1.50;;;;;;;34.17;32.62;98893.63;4988419;28;20030;-69
2022/07/14 07:23:12;;;;;;;9.50;1.17;;;;;;;35.38;30.84;98883.84;4992627;28;20058;-71
2022/07/14 07:25:37;;;;;;;14.38;1.52;;;;;;;35.84;28.85;98886.88;4995386;28;20034;-74
2022/07/14 07:28:03;;;;;;;8.70;1.10;;;;;;;35.07;30.30;98882.72;4986647;28;20033;-71
2022/07/14 07:30:29;;;;;;;13.18;1.50;;;;;;;35.70;28.94;98885.41;4990291;28;20041;-74
2022/07/14 07:32:55;;;;;;;8.95;1.27;;;;;;;36.55;28.00;98885.53;4992523;28;20022;-72
2022/07/14 07:35:21;;;;;;;7.18;1.10;;;;;;;36.83;28.08;98873.91;4988590;28;20077;-72
2022/07/14 07:37:46;;;;;;;5.18;1.08;;;;;;;37.13;26.95;98863.91;4995404;28;20472;-72
2022/07/14 07:40:12;;;;;;;9.18;1.35;;;;;;;36.87;27.56;98873.16;4981623;28;20043;-72
2022/07/14 07:42:37;;;;;;;7.95;1.00;;;;;;;38.06;26.95;98870.84;4980675;28;20061;-74
2022/07/14 07:45:03;;;;;;;2.60;0.95;;;;;;;38.67;24.86;98871.47;4990579;28;20064;-70
2022/07/14 07:47:28;;;;;;;6.32;1.25;;;;;;;37.80;25.08;98858.41;4981823;28;20414;-68
2022/07/14 07:49:54;;;;;;;3.20;0.77;;;;;;;38.65;24.55;98854.13;4980169;28;20125;-68
2022/07/14 07:52:20;;;;;;;1.58;0.77;;;;;;;38.84;24.50;98841.75;4984529;28;20120;-70
2022/07/14 07:54:46;;;;;;;4.00;0.82;;;;;;;38.76;24.71;98835.22;4986021;28;20034;-68
2022/07/14 07:57:12;;;;;;;4.80;0.70;;;;;;;39.02;24.02;98842.72;4983556;28;20030;-70
2022/07/14 07:59:38;;;;;;;6.80;0.90;;;;;;;37.96;25.08;98844.06;4986906;28;20077;-70
2022/07/14 08:02:04;;;;;;;2.95;0.75;;;;;;;38.60;24.59;98837.50;4991403;28;20026;-71
2022/07/14 08:04:29;;;;;;;1.27;0.68;;;;;;;38.45;23.50;98830.91;4987683;28;20765;-70
2022/07/14 08:06:55;;;;;;;2.60;0.70;;;;;;;39.50;23.00;98833.31;4989355;28;20053;-71
2022/07/14 08:09:20;;;;;;;0.85;0.70;;;;;;;40.22;20.85;98832.41;4985509;28;20041;-68
2022/07/14 08:11:46;;;;;;;3.03;0.73;;;;;;;40.17;21.54;98823.47;4989709;28;20036;-69
2022/07/14 08:16:56;;;;;;;1.50;0.80;;;;;;;37.97;24.03;98825.97;4985223;28;20101;-69
2022/07/14 08:19:21;;;;;;;1.67;0.73;;;;;;;38.51;23.68;98823.69;4984417;28;20066;-69
2022/07/14 08:21:47;;;;;;;5.38;0.90;;;;;;;38.96;22.69;98814.00;4985521;28;20056;-69
2022/07/14 08:24:12;;;;;;;3.33;1.17;;;;;;;37.79;24.00;98820.09;4989183;28;20150;-69
2022/07/14 08:26:39;;;;;;;1.05;0.60;;;;;;;39.07;23.36;98818.91;4989765;28;20064;-69
2022/07/14 08:29:05;;;;;;;3.70;0.77;;;;;;;40.76;20.92;98806.91;4984609;28;20053;-68
2022/07/14 08:31:30;;;;;;;4.90;0.90;;;;;;;40.66;21.31;98811.38;4981188;28;20060;-67
2022/07/14 08:33:55;;;;;;;3.30;0.83;;;;;;;40.88;20.98;98795.16;4997768;28;20025;-69
2022/07/14 08:36:21;;;;;;;4.47;0.80;;;;;;;41.55;21.19;98807.56;4981771;28;20331;-68
2022/07/14 08:38:46;;;;;;;2.07;0.87;;;;;;;41.44;20.72;98801.09;4982791;28;20289;-69
2022/07/14 08:41:11;;;;;;;2.33;0.70;;;;;;;41.25;20.42;98798.75;4982486;28;20379;-69
2022/07/14 08:43:38;;;;;;;4.78;0.70;;;;;;;41.76;19.98;98788.81;4985561;28;20276;-68
2022/07/14 08:46:04;;;;;;;2.90;0.85;;;;;;;40.10;21.25;98799.53;4986639;28;20035;-68
2022/07/14 08:48:30;;;;;;;2.33;0.80;;;;;;;40.69;21.36;98779.38;4980477;28;20033;-69
2022/07/14 08:50:57;;;;;;;2.25;0.60;;;;;;;41.08;20.38;98783.38;4979751;28;20023;-69
2022/07/14 08:53:24;;;;;;;1.02;0.65;;;;;;;41.48;20.23;98787.72;4980647;28;20026;-69
2022/07/14 08:55:49;;;;;;;3.33;0.70;;;;;;;41.64;19.33;98772.25;4982464;28;20035;-68
2022/07/14 08:58:15;;;;;;;3.38;0.60;;;;;;;42.14;19.05;98778.47;4981602;28;20033;-69
2022/07/14 09:00:40;;;;;;;4.75;0.88;;;;;;;39.97;20.74;98781.31;4979488;28;20034;-68
2022/07/14 09:03:05;;;;;;;6.43;1.00;;;;;;;38.11;22.71;98752.66;4991169;28;20030;-69
2022/07/14 09:05:31;;;;;;;3.85;0.88;;;;;;;37.85;22.53;98766.88;4990977;28;20034;-68
2022/07/14 09:07:57;;;;;;;9.45;1.02;;;;;;;38.82;22.23;98739.50;4982135;28;20030;-68
2022/07/14 09:10:28;;;;;;;4.65;0.80;;;;;;;40.51;20.86;98755.88;4984398;28;20129;-69
2022/07/14 09:13:20;;;;;;;2.47;0.88;;;;;;;38.05;23.02;98759.88;4982829;28;20563;-69
2022/07/14 09:15:47;;;;;;;2.38;0.70;;;;;;;38.56;22.03;98758.31;4982835;28;20026;-69
2022/07/14 09:18:26;;;;;;;5.07;1.27;;;;;;;39.86;21.08;98764.28;4976794;28;20481;-68
2022/07/14 09:20:54;;;;;;;4.30;0.82;;;;;;;41.85;19.34;98754.28;4983773;28;20034;-69
2022/07/14 09:23:35;;;;;;;3.23;1.00;;;;;;;42.81;18.79;98756.38;4987645;28;20108;-68
2022/07/14 09:26:17;;;;;;;4.38;1.00;;;;;;;42.01;19.08;98746.88;4978789;28;20278;-69
2022/07/14 09:28:45;;;;;;;3.45;0.90;;;;;;;43.08;18.27;98741.47;4980673;28;20129;-69
2022/07/14 09:31:25;;;;;;;1.17;0.87;;;;;;;42.81;18.29;98739.31;4981482;28;20042;-69
2022/07/14 09:33:55;;;;;;;5.20;1.00;;;;;;;42.27;18.68;98743.84;4985724;28;20281;-69
2022/07/14 09:36:33;;;;;;;4.20;1.00;;;;;;;41.88;18.88;98736.38;4982666;28;20022;-69
2022/07/14 09:39:05;;;;;;;1.90;0.80;;;;;;;41.76;18.76;98732.78;4977619;28;20205;-69
2022/07/14 09:41:33;;;;;;;4.50;0.90;;;;;;;42.21;18.31;98723.56;4981084;28;20034;-69
2022/07/14 09:44:05;;;;;;;6.75;0.80;;;;;;;42.50;18.21;98717.66;4985903;28;20022;-69
2022/07/14 09:46:47;;;;;;;5.93;0.70;;;;;;;41.11;19.08;98735.13;4977261;28;20116;-69
2022/07/14 09:49:14;;;;;;;5.15;0.93;;;;;;;42.46;17.45;98717.69;4972573;28;20564;-69
2022/07/14 09:52:00;;;;;;;4.15;0.90;;;;;;;43.99;17.29;98719.94;4980504;28;20050;-69
2022/07/14 09:54:43;;;;;;;9.00;1.45;;;;;;;43.56;16.25;98726.22;4986056;28;20045;-69
2022/07/14 09:57:19;;;;;;;3.58;0.60;;;;;;;43.23;16.58;98720.16;4979312;28;20026;-69
2022/07/14 09:59:53;;;;;;;1.58;0.60;;;;;;;42.43;17.05;98719.34;4982407;28;20492;-69
2022/07/14 10:02:26;;;;;;;3.05;0.80;;;;;;;41.01;17.80;98709.59;4981454;28;20498;-69
2022/07/14 10:05:05;;;;;;;3.22;0.80;;;;;;;41.45;18.08;98711.03;4980547;28;21231;-69
2022/07/14 10:07:36;;;;;;;5.05;0.90;;;;;;;39.99;19.06;98710.88;4977587;28;20034;-69
2022/07/14 10:10:15;;;;;;;6.68;0.70;;;;;;;41.42;18.71;98703.34;4979490;28;20034;-69
2022/07/14 10:12:41;;;;;;;2.30;0.80;;;;;;;42.61;17.59;98707.78;4991164;28;20054;-69
2022/07/14 10:15:10;;;;;;;1.90;0.75;;;;;;;43.31;17.29;98698.91;4974916;28;20039;-68
2022/07/14 10:17:37;;;;;;;4.75;0.90;;;;;;;43.12;17.31;98694.63;4983550;28;20105;-68
2022/07/14 10:20:11;;;;;;;4.88;0.63;;;;;;;43.43;17.05;98691.00;4978839;28;20834;-68
2022/07/14 10:22:38;;;;;;;4.50;0.80;;;;;;;40.96;18.75;98697.44;4986020;28;20030;-69
2022/07/14 10:25:06;;;;;;;3.25;0.70;;;;;;;42.94;17.99;98690.38;4994679;28;20097;-69
2022/07/14 10:27:32;;;;;;;4.93;0.80;;;;;;;43.93;17.25;98676.81;4974698;28;20029;-68
2022/07/14 10:29:58;;;;;;;4.57;0.50;;;;;;;44.29;17.04;98681.16;4981953;28;20059;-69
2022/07/14 10:32:48;;;;;;;5.78;0.65;;;;;;;44.09;16.53;98676.19;4979396;28;20270;-69
2022/07/14 10:35:35;;;;;;;8.00;0.80;;;;;;;42.36;17.53;98667.41;4978415;28;20037;-68
2022/07/14 10:38:23;;;;;;;3.50;0.80;;;;;;;42.74;17.17;98682.47;4980737;28;20113;-69
2022/07/14 10:40:59;;;;;;;5.68;0.80;;;;;;;43.72;17.69;98671.47;4982258;28;20042;-68
2022/07/14 10:43:39;;;;;;;1.40;0.77;;;;;;;44.01;17.17;98654.75;4985298;28;20039;-68
2022/07/14 10:46:04;;;;;;;3.00;0.55;;;;;;;43.22;17.25;98655.09;4983005;28;20080;-68
2022/07/14 10:48:34;;;;;;;0.93;0.63;;;;;;;42.87;17.41;98657.94;4977751;28;20053;-69
2022/07/14 10:51:31;;;;;;;4.75;0.90;;;;;;;42.80;18.44;98651.53;4988041;28;20419;-68
2022/07/14 10:54:11;;;;;;;6.15;0.95;;;;;;;43.70;17.47;98651.16;4971866;28;20570;-68
2022/07/14 10:56:37;;;;;;;6.47;0.80;;;;;;;43.12;17.10;98651.91;4985602;28;20390;-68
2022/07/14 10:59:26;;;;;;;2.15;0.60;;;;;;;41.99;18.49;98644.16;4986733;28;20076;-68
2022/07/14 11:02:10;;;;;;;1.30;0.82;;;;;;;41.99;18.10;98634.81;4975226;28;20019;-68
2022/07/14 11:07:39;;;;;;;1.17;0.60;;;;;;;42.05;19.23;98635.97;4982496;28;20038;-68
2022/07/14 11:10:19;;;;;;;2.30;0.70;;;;;;;41.74;19.93;98632.16;4988470;28;20117;-68
2022/07/14 11:13:00;;;;;;;3.38;0.80;;;;;;;41.44;19.25;98627.88;4984985;28;20651;-68
2022/07/14 11:15:55;;;;;;;5.47;0.90;;;;;;;41.20;18.78;98640.19;4988591;28;20049;-67
2022/07/14 11:18:21;;;;;;;3.42;0.80;;;;;;;42.28;18.75;98631.72;4981774;28;20738;-68
2022/07/14 11:20:59;;;;;;;1.85;0.73;;;;;;;41.45;18.53;98635.19;4989172;28;20113;-68
2022/07/14 11:23:48;;;;;;;2.67;0.80;;;;;;;41.10;19.50;98617.13;4976548;28;20101;-68
2022/07/14 11:26:41;;;;;;;2.15;0.60;;;;;;;42.84;18.50;98630.34;4982194;28;20058;-68
2022/07/14 11:29:08;;;;;;;1.45;0.80;;;;;;;43.38;18.67;98617.44;4984076;28;20495;-68
2022/07/14 11:31:51;;;;;;;9.07;1.23;;;;;;;43.77;18.03;98616.84;4986741;28;20558;-69
2022/07/14 11:37:19;;;;;;;3.10;0.90;;;;;;;43.52;18.78;98614.34;4981917;28;20118;-68
2022/07/14 11:39:44;;;;;;;5.50;0.88;;;;;;;44.16;17.87;98604.78;4979985;28;20039;-69
2022/07/14 11:42:14;;;;;;;1.38;0.70;;;;;;;43.69;17.78;98603.94;4985560;28;20049;-69
2022/07/14 11:44:39;;;;;;;2.60;0.77;;;;;;;41.52;18.65;98603.09;4986527;28;20030;-68
2022/07/14 11:47:25;;;;;;;1.33;0.80;;;;;;;42.08;18.46;98594.53;4979504;28;20483;-68
2022/07/14 11:49:53;;;;;;;3.28;0.73;;;;;;;41.57;19.04;98575.06;4978574;28;20540;-68
2022/07/14 11:52:29;;;;;;;3.70;0.80;;;;;;;40.28;19.79;98584.16;4981530;28;20040;-69